<?xml version="1.0" encoding="utf-8"?>
<gpx xmlns:xsi="http://www.w3.org/2001/XMLSchema-instance" xmlns:xsd="http://www.w3.org/2001/XMLSchema" version="1.1" creator="Shapelink.com" xmlns="http://www.topografix.com/GPX/1/1" xmlns:gpxtpx="http://www.garmin.com/xmlschemas/TrackPointExtension/v1">
  <metadata>
    <name>Övrigt 2.27 km, 2019-05-18</name>
    <desc></desc>
    <author><name>Marian Moron</name></author> 
    <time>2019-05-18T19:20:17Z</time>
  </metadata>
  <trk>
    <name>Övrigt 2.27 km, 2019-05-18</name>
    <trkseg>
      <trkpt lat="51.229928383796" lon="4.45817251571">
        <ele>0</ele>
        <time>2019-05-18T19:20:17Z</time>
      </trkpt>
      <trkpt lat="51.229934670221" lon="4.458425229995">
        <ele>0</ele>
        <time>2019-05-18T19:20:29Z</time>
      </trkpt>
      <trkpt lat="51.229965012699" lon="4.458667886">
        <ele>0</ele>
        <time>2019-05-18T19:20:42Z</time>
      </trkpt>
      <trkpt lat="51.229978004644" lon="4.458691690596">
        <ele>0</ele>
        <time>2019-05-18T19:20:44Z</time>
      </trkpt>
      <trkpt lat="51.229991415684" lon="4.458786657523">
        <ele>0</ele>
        <time>2019-05-18T19:20:58Z</time>
      </trkpt>
      <trkpt lat="51.230145642644" lon="4.459017997963">
        <ele>0</ele>
        <time>2019-05-18T19:21:25Z</time>
      </trkpt>
      <trkpt lat="51.230183193556" lon="4.459012549728">
        <ele>0</ele>
        <time>2019-05-18T19:21:29Z</time>
      </trkpt>
      <trkpt lat="51.230295427197" lon="4.458945578347">
        <ele>0</ele>
        <time>2019-05-18T19:22:00Z</time>
      </trkpt>
      <trkpt lat="51.230456443496" lon="4.458975166454">
        <ele>0</ele>
        <time>2019-05-18T19:22:11Z</time>
      </trkpt>
      <trkpt lat="51.230510842027" lon="4.459130399242">
        <ele>0</ele>
        <time>2019-05-18T19:22:33Z</time>
      </trkpt>
      <trkpt lat="51.230542777066" lon="4.459317147974">
        <ele>0</ele>
        <time>2019-05-18T19:22:45Z</time>
      </trkpt>
      <trkpt lat="51.230577729589" lon="4.459546392939">
        <ele>0</ele>
        <time>2019-05-18T19:23:08Z</time>
      </trkpt>
      <trkpt lat="51.230579070693" lon="4.459624931342">
        <ele>0</ele>
        <time>2019-05-18T19:23:17Z</time>
      </trkpt>
      <trkpt lat="51.230675127267" lon="4.459707325419">
        <ele>0</ele>
        <time>2019-05-18T19:23:42Z</time>
      </trkpt>
      <trkpt lat="51.230781745035" lon="4.459697015682">
        <ele>0</ele>
        <time>2019-05-18T19:23:56Z</time>
      </trkpt>
      <trkpt lat="51.23122975759" lon="4.459619399288">
        <ele>0</ele>
        <time>2019-05-18T19:24:29Z</time>
      </trkpt>
      <trkpt lat="51.231359928497" lon="4.459606994076">
        <ele>0</ele>
        <time>2019-05-18T19:24:59Z</time>
      </trkpt>
      <trkpt lat="51.231453470501" lon="4.459620405116">
        <ele>0</ele>
        <time>2019-05-18T19:25:13Z</time>
      </trkpt>
      <trkpt lat="51.231697383791" lon="4.459658291304">
        <ele>0</ele>
        <time>2019-05-18T19:25:35Z</time>
      </trkpt>
      <trkpt lat="51.231773910538" lon="4.459878735274">
        <ele>0</ele>
        <time>2019-05-18T19:25:47Z</time>
      </trkpt>
      <trkpt lat="51.231794110917" lon="4.459945539017">
        <ele>0</ele>
        <time>2019-05-18T19:25:53Z</time>
      </trkpt>
      <trkpt lat="51.231837529159" lon="4.460142094572">
        <ele>0</ele>
        <time>2019-05-18T19:26:06Z</time>
      </trkpt>
      <trkpt lat="51.231913133897" lon="4.460489943422">
        <ele>0</ele>
        <time>2019-05-18T19:26:49Z</time>
      </trkpt>
      <trkpt lat="51.231940877986" lon="4.46075246453">
        <ele>0</ele>
        <time>2019-05-18T19:27:08Z</time>
      </trkpt>
      <trkpt lat="51.232031989239" lon="4.460990845766">
        <ele>0</ele>
        <time>2019-05-18T19:27:22Z</time>
      </trkpt>
      <trkpt lat="51.232103570665" lon="4.461365684334">
        <ele>0</ele>
        <time>2019-05-18T19:27:43Z</time>
      </trkpt>
      <trkpt lat="51.232108096891" lon="4.461431566068">
        <ele>0</ele>
        <time>2019-05-18T19:27:46Z</time>
      </trkpt>
      <trkpt lat="51.232090075806" lon="4.461457298501">
        <ele>0</ele>
        <time>2019-05-18T19:27:50Z</time>
      </trkpt>
      <trkpt lat="51.231943308737" lon="4.461477079785">
        <ele>0</ele>
        <time>2019-05-18T19:28:17Z</time>
      </trkpt>
      <trkpt lat="51.231786483388" lon="4.461476409233">
        <ele>0</ele>
        <time>2019-05-18T19:28:32Z</time>
      </trkpt>
      <trkpt lat="51.2315474316" lon="4.46162334394">
        <ele>0</ele>
        <time>2019-05-18T19:29:08Z</time>
      </trkpt>
      <trkpt lat="51.231403095282" lon="4.462091640693">
        <ele>0</ele>
        <time>2019-05-18T19:31:36Z</time>
      </trkpt>
      <trkpt lat="51.23146025984" lon="4.462640655143">
        <ele>0</ele>
        <time>2019-05-18T19:33:00Z</time>
      </trkpt>
      <trkpt lat="51.231448692818" lon="4.462852046661">
        <ele>0</ele>
        <time>2019-05-18T19:33:29Z</time>
      </trkpt>
      <trkpt lat="51.231414746123" lon="4.463084979662">
        <ele>0</ele>
        <time>2019-05-18T19:33:46Z</time>
      </trkpt>
      <trkpt lat="51.231330424209" lon="4.4631270568">
        <ele>0</ele>
        <time>2019-05-18T19:33:52Z</time>
      </trkpt>
      <trkpt lat="51.231133281921" lon="4.463188579946">
        <ele>0</ele>
        <time>2019-05-18T19:34:26Z</time>
      </trkpt>
      <trkpt lat="51.230923734421" lon="4.463341214345">
        <ele>0</ele>
        <time>2019-05-18T19:34:53Z</time>
      </trkpt>
      <trkpt lat="51.230807896563" lon="4.463409862106">
        <ele>0</ele>
        <time>2019-05-18T19:35:08Z</time>
      </trkpt>
      <trkpt lat="51.230428028855" lon="4.463600550331">
        <ele>0</ele>
        <time>2019-05-18T19:36:13Z</time>
      </trkpt>
      <trkpt lat="51.230427945036" lon="4.463629467886">
        <ele>0</ele>
        <time>2019-05-18T19:36:15Z</time>
      </trkpt>
      <trkpt lat="51.230400368585" lon="4.463800374827">
        <ele>0</ele>
        <time>2019-05-18T19:36:26Z</time>
      </trkpt>
      <trkpt lat="51.230235915707" lon="4.463996930382">
        <ele>0</ele>
        <time>2019-05-18T19:36:57Z</time>
      </trkpt>
      <trkpt lat="51.229978675196" lon="4.464248135925">
        <ele>0</ele>
        <time>2019-05-18T19:38:56Z</time>
      </trkpt>
      <trkpt lat="51.229523873302" lon="4.464311670727">
        <ele>0</ele>
        <time>2019-05-18T19:39:40Z</time>
      </trkpt>
      <trkpt lat="51.229069909598" lon="4.464367158905">
        <ele>4</ele>
        <time>2019-05-18T19:40:27Z</time>
      </trkpt>
      <trkpt lat="51.228680654162" lon="4.46447067537">
        <ele>0</ele>
        <time>2019-05-18T19:41:33Z</time>
      </trkpt>
      <trkpt lat="51.228612676953" lon="4.464332960753">
        <ele>0</ele>
        <time>2019-05-18T19:41:41Z</time>
      </trkpt>
      <trkpt lat="51.228618376645" lon="4.46414210489">
        <ele>0</ele>
        <time>2019-05-18T19:42:00Z</time>
      </trkpt>
      <trkpt lat="51.228595577877" lon="4.464096674992">
        <ele>0</ele>
        <time>2019-05-18T19:42:04Z</time>
      </trkpt>
      <trkpt lat="51.228546627581" lon="4.463896599039">
        <ele>0</ele>
        <time>2019-05-18T19:42:17Z</time>
      </trkpt>
      <trkpt lat="51.228499186027" lon="4.463671125929">
        <ele>0</ele>
        <time>2019-05-18T19:42:30Z</time>
      </trkpt>
      <trkpt lat="51.228416875769" lon="4.463404665328">
        <ele>0</ele>
        <time>2019-05-18T19:43:31Z</time>
      </trkpt>
      <trkpt lat="51.228020076623" lon="4.463063102903">
        <ele>1.2</ele>
        <time>2019-05-18T19:44:30Z</time>
      </trkpt>
      <trkpt lat="51.227898036159" lon="4.462727826903">
        <ele>3.2</ele>
        <time>2019-05-18T19:44:56Z</time>
      </trkpt>
      <trkpt lat="51.227875069753" lon="4.462008743702">
        <ele>0</ele>
        <time>2019-05-18T19:45:44Z</time>
      </trkpt>
      <trkpt lat="51.227847744759" lon="4.461665672535">
        <ele>0</ele>
        <time>2019-05-18T19:46:44Z</time>
      </trkpt>
      <trkpt lat="51.227833076434" lon="4.461430644059">
        <ele>0</ele>
        <time>2019-05-18T19:46:56Z</time>
      </trkpt>
      <trkpt lat="51.227836848289" lon="4.461276752375">
        <ele>0</ele>
        <time>2019-05-18T19:47:03Z</time>
      </trkpt>
      <trkpt lat="51.227818156652" lon="4.461176672489">
        <ele>0</ele>
        <time>2019-05-18T19:47:13Z</time>
      </trkpt>
      <trkpt lat="51.227809271838" lon="4.460807282156">
        <ele>0</ele>
        <time>2019-05-18T19:47:37Z</time>
      </trkpt>
      <trkpt lat="51.227733918557" lon="4.460750452874">
        <ele>0</ele>
        <time>2019-05-18T19:47:45Z</time>
      </trkpt>
      <trkpt lat="51.227613303016" lon="4.460856483909">
        <ele>0</ele>
        <time>2019-05-18T19:48:04Z</time>
      </trkpt>
      <trkpt lat="51.227527807636" lon="4.461051530722">
        <ele>6.2</ele>
        <time>2019-05-18T19:48:31Z</time>
      </trkpt>
      <trkpt lat="51.227509702732" lon="4.461178767964">
        <ele>6</ele>
        <time>2019-05-18T19:48:48Z</time>
      </trkpt>
      <trkpt lat="51.227459830427" lon="4.461211625012">
        <ele>4</ele>
        <time>2019-05-18T19:49:15Z</time>
      </trkpt>
      <trkpt lat="51.227363270939" lon="4.461222018568">
        <ele>0</ele>
        <time>2019-05-18T19:49:42Z</time>
      </trkpt>
      <trkpt lat="51.227382884585" lon="4.461191173176">
        <ele>0</ele>
        <time>2019-05-18T19:49:46Z</time>
      </trkpt>
      <trkpt lat="51.227438959496" lon="4.460680631647">
        <ele>0.4</ele>
        <time>2019-05-18T19:50:22Z</time>
      </trkpt>
      <trkpt lat="51.227302250707" lon="4.460004379955">
        <ele>2.8</ele>
        <time>2019-05-18T19:51:02Z</time>
      </trkpt>
      <trkpt lat="51.227067389869" lon="4.459380263681">
        <ele>0</ele>
        <time>2019-05-18T19:51:38Z</time>
      </trkpt>
      <trkpt lat="51.227053475915" lon="4.459317902345">
        <ele>0</ele>
        <time>2019-05-18T19:51:41Z</time>
      </trkpt>
      <trkpt lat="51.227112735948" lon="4.459096117271">
        <ele>0</ele>
        <time>2019-05-18T19:51:57Z</time>
      </trkpt>
      <trkpt lat="51.227085159497" lon="4.459080862213">
        <ele>0</ele>
        <time>2019-05-18T19:52:12Z</time>
      </trkpt>
      <trkpt lat="51.226675200768" lon="4.45939292035">
        <ele>4.8</ele>
        <time>2019-05-18T19:52:54Z</time>
      </trkpt>
      <trkpt lat="51.226281167649" lon="4.459443882302">
        <ele>0</ele>
        <time>2019-05-18T19:53:21Z</time>
      </trkpt>
      <trkpt lat="51.226246466583" lon="4.459392165979">
        <ele>0</ele>
        <time>2019-05-18T19:53:34Z</time>
      </trkpt>
      <trkpt lat="51.226009594089" lon="4.458812725232">
        <ele>0</ele>
        <time>2019-05-18T19:54:19Z</time>
      </trkpt>
      <trkpt lat="51.226280161821" lon="4.45851533542">
        <ele>0</ele>
        <time>2019-05-18T19:54:45Z</time>
      </trkpt>
      <trkpt lat="51.22667168037" lon="4.45814317906">
        <ele>1.8</ele>
        <time>2019-05-18T19:55:25Z</time>
      </trkpt>
      <trkpt lat="51.22684183294" lon="4.458023904623">
        <ele>5</ele>
        <time>2019-05-18T19:55:50Z</time>
      </trkpt>
      <trkpt lat="51.227030509509" lon="4.457957017061">
        <ele>4.6</ele>
        <time>2019-05-18T19:56:09Z</time>
      </trkpt>
      <trkpt lat="51.227079375986" lon="4.45795039536">
        <ele>2.2</ele>
        <time>2019-05-18T19:56:14Z</time>
      </trkpt>
      <trkpt lat="51.227520012469" lon="4.457761383515">
        <ele>0</ele>
        <time>2019-05-18T19:56:50Z</time>
      </trkpt>
      <trkpt lat="51.227791250753" lon="4.457613023885">
        <ele>0</ele>
        <time>2019-05-18T19:57:21Z</time>
      </trkpt>
      <trkpt lat="51.227841039239" lon="4.457588381099">
        <ele>0</ele>
        <time>2019-05-18T19:57:28Z</time>
      </trkpt>
      <trkpt lat="51.227961738599" lon="4.457538760251">
        <ele>0</ele>
        <time>2019-05-18T19:57:41Z</time>
      </trkpt>
      <trkpt lat="51.228051257291" lon="4.457502885719">
        <ele>0</ele>
        <time>2019-05-18T19:57:53Z</time>
      </trkpt>
      <trkpt lat="51.228098531207" lon="4.457457372002">
        <ele>0</ele>
        <time>2019-05-18T19:58:09Z</time>
      </trkpt>
      <trkpt lat="51.228247645208" lon="4.457350335139">
        <ele>0</ele>
        <time>2019-05-18T19:58:25Z</time>
      </trkpt>
      <trkpt lat="51.228527516849" lon="4.457204238622">
        <ele>0</ele>
        <time>2019-05-18T19:58:57Z</time>
      </trkpt>
      <trkpt lat="51.228972092825" lon="4.457041629762">
        <ele>0</ele>
        <time>2019-05-18T19:59:34Z</time>
      </trkpt>
      <trkpt lat="51.229407113435" lon="4.456761674302">
        <ele>0</ele>
        <time>2019-05-18T20:00:12Z</time>
      </trkpt>
      <trkpt lat="51.22969754627" lon="4.4567316671">
        <ele>0</ele>
        <time>2019-05-18T20:00:32Z</time>
      </trkpt>
      <trkpt lat="51.22978052708" lon="4.457438345089">
        <ele>0</ele>
        <time>2019-05-18T20:01:01Z</time>
      </trkpt>
      <trkpt lat="51.229825956978" lon="4.457664740208">
        <ele>0</ele>
        <time>2019-05-18T20:01:16Z</time>
      </trkpt>
      <trkpt lat="51.22986518427" lon="4.457718635825">
        <ele>0</ele>
        <time>2019-05-18T20:01:23Z</time>
      </trkpt>
      <trkpt lat="51.229898041318" lon="4.457865989627">
        <ele>0</ele>
        <time>2019-05-18T20:01:41Z</time>
      </trkpt>
      <trkpt lat="51.22978807079" lon="4.457928099506">
        <ele>0.6</ele>
        <time>2019-05-18T20:01:54Z</time>
      </trkpt>
      <trkpt lat="51.229734845725" lon="4.457933799198">
        <ele>0.2</ele>
        <time>2019-05-18T20:01:59Z</time>
      </trkpt>
    </trkseg>
  </trk>
</gpx>